createdAt,value
2022-08-21T00:00:22.480Z,4.43
2022-08-21T00:02:52.106Z,5.43
2022-08-21T00:05:20.792Z,5.70
2022-08-21T00:07:49.130Z,5.50
2022-08-21T00:10:18.943Z,6.30
2022-08-21T00:12:47.711Z,5.55
2022-08-21T00:15:17.236Z,5.20
2022-08-21T00:17:45.639Z,4.85
2022-08-21T00:20:15.440Z,4.45
2022-08-21T00:22:43.761Z,4.85
2022-08-21T00:25:12.840Z,4.35
2022-08-21T00:27:44.283Z,4.18
2022-08-21T00:30:23.001Z,4.32
2022-08-21T00:32:52.033Z,4.00
2022-08-21T00:35:22.001Z,3.70
2022-08-21T00:37:50.313Z,4.15
2022-08-21T00:40:19.893Z,4.25
2022-08-21T00:42:53.585Z,4.47
2022-08-21T00:45:22.613Z,4.13
2022-08-21T00:47:51.819Z,4.05
2022-08-21T00:50:21.951Z,4.07
2022-08-21T00:52:51.494Z,4.25
2022-08-21T00:55:20.733Z,3.95
2022-08-21T00:57:53.735Z,4.05
2022-08-21T01:00:24.191Z,3.50
2022-08-21T01:02:52.568Z,4.35
2022-08-21T01:05:21.092Z,4.35
2022-08-21T01:07:49.494Z,4.03
2022-08-21T01:10:23.748Z,3.92
2022-08-21T01:12:56.087Z,4.38
2022-08-21T01:15:25.876Z,4.28
2022-08-21T01:17:54.768Z,3.95
2022-08-21T01:20:23.400Z,4.70
2022-08-21T01:23:02.291Z,3.80
2022-08-21T01:25:30.670Z,4.68
2022-08-21T01:27:59.879Z,4.03
2022-08-21T01:30:29.808Z,4.30
2022-08-21T01:32:59.045Z,4.43
2022-08-21T01:35:27.549Z,3.90
2022-08-21T01:37:55.850Z,4.20
2022-08-21T01:40:25.889Z,4.30
2022-08-21T01:42:54.422Z,4.20
2022-08-21T01:45:22.931Z,4.30
2022-08-21T01:47:51.259Z,5.20
2022-08-21T01:50:21.116Z,4.22
2022-08-21T01:52:49.572Z,4.35
2022-08-21T01:55:19.396Z,4.28
2022-08-21T01:57:49.965Z,4.30
2022-08-21T02:00:21.194Z,4.80
2022-08-21T02:02:49.547Z,4.63
2022-08-21T02:05:19.588Z,5.28
2022-08-21T02:07:50.208Z,4.43
2022-08-21T02:10:19.812Z,4.20
2022-08-21T02:12:49.529Z,4.22
2022-08-21T02:15:17.930Z,4.20
2022-08-21T02:17:48.823Z,4.43
2022-08-21T02:20:19.771Z,4.28
2022-08-21T02:22:48.132Z,4.22
2022-08-21T02:25:16.573Z,4.20
2022-08-21T02:27:45.614Z,4.72
2022-08-21T02:30:16.972Z,4.10
2022-08-21T02:32:45.299Z,4.82
2022-08-21T02:35:13.755Z,4.20
2022-08-21T02:37:45.992Z,4.30
2022-08-21T02:40:14.639Z,4.28
2022-08-21T02:42:44.684Z,4.43
2022-08-21T02:45:13.521Z,5.28
2022-08-21T02:47:43.319Z,4.35
2022-08-21T02:50:11.681Z,4.80
2022-08-21T02:52:40.045Z,4.80
2022-08-21T02:55:08.468Z,4.72
2022-08-21T02:57:36.965Z,4.88
2022-08-21T03:00:06.287Z,4.75
2022-08-21T03:02:35.788Z,4.82
2022-08-21T03:05:05.789Z,4.57
2022-08-21T03:07:34.908Z,4.80
2022-08-21T03:10:03.332Z,4.80
2022-08-21T03:12:31.714Z,4.47
2022-08-21T03:15:00.122Z,5.35
2022-08-21T03:17:29.859Z,5.03
2022-08-21T03:19:58.702Z,4.90
2022-08-21T03:22:30.725Z,5.05
2022-08-21T03:24:59.767Z,5.53
2022-08-21T03:27:28.773Z,4.93
2022-08-21T03:29:58.310Z,5.45
2022-08-21T03:32:26.726Z,5.22
2022-08-21T03:34:55.271Z,5.25
2022-08-21T03:37:23.640Z,5.43
2022-08-21T03:39:53.587Z,5.47
2022-08-21T03:42:22.045Z,5.00
2022-08-21T03:44:50.370Z,5.40
2022-08-21T03:47:18.791Z,5.50
2022-08-21T03:49:47.151Z,4.78
2022-08-21T03:52:16.228Z,5.20
2022-08-21T03:54:44.572Z,4.70
2022-08-21T03:57:14.280Z,5.13
2022-08-21T03:59:43.885Z,4.85
2022-08-21T04:02:12.641Z,4.60
2022-08-21T04:04:40.974Z,4.75
2022-08-21T04:07:09.319Z,5.05
2022-08-21T04:09:37.752Z,4.65
2022-08-21T04:12:06.748Z,4.85
2022-08-21T04:14:36.433Z,4.60
2022-08-21T04:17:04.777Z,4.80
2022-08-21T04:19:33.136Z,4.93
2022-08-21T04:22:01.494Z,4.80
2022-08-21T04:24:30.980Z,5.43
2022-08-21T04:26:59.358Z,5.32
2022-08-21T04:29:27.658Z,5.82
2022-08-21T04:31:57.623Z,5.80
2022-08-21T04:34:25.991Z,6.70
2022-08-21T04:36:54.331Z,7.28
2022-08-21T04:39:22.700Z,6.93
2022-08-21T04:41:58.086Z,7.35
2022-08-21T04:44:26.433Z,6.53
2022-08-21T04:46:54.814Z,7.18
2022-08-21T04:49:24.530Z,8.38
2022-08-21T04:51:52.917Z,7.05
2022-08-21T04:54:23.256Z,7.60
2022-08-21T04:56:52.897Z,7.60
2022-08-21T04:59:23.359Z,7.85
2022-08-21T05:01:52.263Z,7.47
2022-08-21T05:04:23.474Z,6.97
2022-08-21T05:06:53.690Z,7.18
2022-08-21T05:09:22.391Z,7.13
2022-08-21T05:11:52.480Z,8.02
2022-08-21T05:14:21.406Z,8.27
2022-08-21T05:16:50.038Z,8.13
2022-08-21T05:19:18.441Z,8.32
2022-08-21T05:21:48.436Z,7.53
2022-08-21T05:24:18.803Z,8.30
2022-08-21T05:26:47.957Z,8.70
2022-08-21T05:29:16.728Z,9.13
2022-08-21T05:31:49.290Z,8.75
2022-08-21T05:34:20.490Z,9.60
2022-08-21T05:36:48.859Z,8.65
2022-08-21T05:39:18.615Z,9.27
2022-08-21T05:41:46.983Z,9.05
2022-08-21T05:44:15.309Z,9.38
2022-08-21T05:46:43.657Z,9.20
2022-08-21T05:49:12.393Z,8.80
2022-08-21T05:51:42.475Z,7.88
2022-08-21T05:54:12.170Z,7.93
2022-08-21T05:56:45.472Z,7.55
2022-08-21T05:59:14.184Z,6.88
2022-08-21T06:01:42.756Z,6.50
2022-08-21T06:04:11.644Z,7.60
2022-08-21T06:06:39.969Z,6.28
2022-08-21T06:09:08.698Z,6.20
2022-08-21T06:11:37.147Z,7.10
2022-08-21T06:14:07.676Z,7.43
2022-08-21T06:16:36.112Z,7.10
2022-08-21T06:19:04.545Z,8.13
2022-08-21T06:21:32.965Z,8.48
2022-08-21T06:24:01.282Z,8.52
2022-08-21T06:26:30.187Z,9.07
2022-08-21T06:28:58.536Z,8.35
2022-08-21T06:31:29.340Z,9.10
2022-08-21T06:33:57.713Z,8.88
2022-08-21T06:36:26.257Z,8.20
2022-08-21T06:38:54.599Z,8.35
2022-08-21T06:41:26.599Z,9.85
2022-08-21T06:43:56.334Z,9.48
2022-08-21T06:46:24.975Z,10.27
2022-08-21T06:48:54.675Z,9.50
2022-08-21T06:51:23.486Z,9.85
2022-08-21T06:53:51.928Z,10.27
2022-08-21T06:56:20.297Z,10.30
2022-08-21T06:58:48.610Z,10.43
2022-08-21T07:01:16.978Z,9.57
2022-08-21T07:03:46.339Z,9.93
2022-08-21T07:06:16.058Z,9.68
2022-08-21T07:08:44.949Z,9.60
2022-08-21T07:11:15.599Z,10.85
2022-08-21T07:13:43.919Z,11.07
2022-08-21T07:16:12.330Z,9.45
2022-08-21T07:18:40.690Z,10.32
2022-08-21T07:21:09.703Z,10.77
2022-08-21T07:23:40.157Z,10.63
2022-08-21T07:26:08.872Z,10.65
2022-08-21T07:28:37.407Z,10.27
2022-08-21T07:31:06.499Z,10.27
2022-08-21T07:33:36.617Z,10.13
2022-08-21T07:36:05.234Z,10.07
2022-08-21T07:38:33.613Z,11.00
2022-08-21T07:41:04.232Z,10.68
2022-08-21T07:43:32.561Z,10.30
2022-08-21T07:46:01.221Z,10.40
2022-08-21T07:48:29.517Z,10.93
2022-08-21T07:50:58.191Z,10.65
2022-08-21T07:53:26.516Z,10.30
2022-08-21T07:55:54.868Z,11.02
2022-08-21T07:58:24.541Z,10.43
2022-08-21T08:00:52.912Z,10.20
2022-08-21T08:03:28.845Z,10.50
2022-08-21T08:05:58.950Z,9.95
2022-08-21T08:08:27.535Z,9.95
2022-08-21T08:10:56.499Z,9.65
2022-08-21T08:13:26.576Z,10.68
2022-08-21T08:15:54.956Z,10.73
2022-08-21T08:18:23.268Z,10.70
2022-08-21T08:20:51.654Z,11.32
2022-08-21T08:23:20.015Z,10.57
2022-08-21T08:25:48.371Z,11.48
2022-08-21T08:28:17.839Z,12.50
2022-08-21T08:30:47.943Z,11.85
2022-08-21T08:33:16.463Z,11.63
2022-08-21T08:35:45.325Z,11.55
2022-08-21T08:38:16.747Z,12.25
2022-08-21T08:40:49.127Z,11.77
2022-08-21T08:43:17.422Z,11.20
2022-08-21T08:45:48.472Z,10.05
2022-08-21T08:48:29.479Z,10.15
2022-08-21T08:50:59.345Z,10.90
2022-08-21T08:53:30.501Z,10.50
2022-08-21T08:56:00.293Z,10.90
2022-08-21T08:58:31.410Z,10.20
2022-08-21T09:01:00.363Z,10.20
2022-08-21T09:03:30.474Z,9.70
2022-08-21T09:06:00.599Z,9.75
2022-08-21T09:08:35.924Z,9.18
2022-08-21T09:11:05.904Z,8.80
2022-08-21T09:13:44.705Z,8.75
2022-08-21T09:16:16.532Z,8.52
2022-08-21T09:18:53.703Z,8.00
2022-08-21T09:21:26.675Z,8.48
2022-08-21T09:23:58.007Z,8.25
2022-08-21T09:26:28.217Z,8.30
2022-08-21T09:28:58.211Z,7.75
2022-08-21T09:31:27.608Z,6.45
2022-08-21T09:34:02.097Z,7.70
2022-08-21T09:36:34.374Z,7.82
2022-08-21T09:39:02.846Z,7.40
2022-08-21T09:41:32.371Z,7.68
2022-08-21T09:44:00.835Z,6.97
2022-08-21T09:46:30.444Z,6.75
2022-08-21T09:48:59.816Z,5.25
2022-08-21T09:51:32.658Z,4.85
2022-08-21T09:54:16.853Z,5.30
2022-08-21T09:57:13.966Z,4.47
2022-08-21T09:59:42.634Z,3.42
2022-08-21T10:02:25.779Z,3.90
2022-08-21T10:04:55.138Z,4.57
2022-08-21T10:07:25.913Z,4.82
2022-08-21T10:10:01.527Z,3.75
2022-08-21T10:12:32.967Z,4.80
2022-08-21T10:15:08.417Z,5.05
2022-08-21T10:17:40.542Z,5.20
2022-08-21T10:20:12.399Z,4.53
2022-08-21T10:22:46.737Z,4.45
2022-08-21T10:25:20.680Z,4.65
2022-08-21T10:27:54.641Z,4.22
2022-08-21T10:30:25.325Z,4.45
2022-08-21T10:33:04.878Z,4.13
2022-08-21T10:35:35.942Z,3.72
2022-08-21T10:38:23.501Z,3.90
2022-08-21T10:41:04.241Z,3.50
2022-08-21T10:43:38.174Z,3.35
2022-08-21T10:46:10.013Z,3.28
2022-08-21T10:48:39.766Z,3.67
2022-08-21T10:51:12.560Z,2.80
2022-08-21T10:53:53.786Z,2.35
2022-08-21T10:56:24.128Z,2.20
2022-08-21T10:58:57.256Z,2.65
2022-08-21T11:01:28.687Z,2.30
2022-08-21T11:04:01.609Z,2.80
2022-08-21T11:09:02.089Z,2.58
2022-08-21T11:11:35.893Z,2.30
2022-08-21T11:14:07.262Z,3.20
2022-08-21T11:16:39.738Z,2.75
2022-08-21T11:19:09.524Z,3.30
2022-08-21T11:21:40.824Z,3.20
2022-08-21T11:24:22.588Z,3.50
2022-08-21T11:26:54.525Z,3.15
2022-08-21T11:29:26.546Z,2.90
2022-08-21T11:32:03.458Z,3.38
2022-08-21T11:34:41.243Z,2.95
2022-08-21T11:37:15.572Z,2.88
2022-08-21T11:39:48.334Z,2.88
2022-08-21T11:42:20.236Z,3.03
2022-08-21T11:44:52.193Z,3.28
2022-08-21T11:47:26.140Z,2.45
2022-08-21T11:50:00.281Z,2.80
2022-08-21T11:52:31.842Z,2.63
2022-08-21T11:55:05.359Z,3.20
2022-08-21T11:57:35.512Z,2.75
2022-08-21T12:00:07.906Z,2.70
2022-08-21T12:02:38.360Z,2.38
2022-08-21T12:05:09.221Z,2.75
2022-08-21T12:07:38.977Z,2.83
2022-08-21T12:10:09.964Z,2.33
2022-08-21T12:12:39.150Z,2.60
2022-08-21T12:15:15.359Z,2.90
2022-08-21T12:17:53.367Z,2.42
2022-08-21T12:20:36.432Z,2.67
2022-08-21T12:23:07.004Z,2.67
2022-08-21T12:25:44.168Z,2.63
2022-08-21T12:28:13.633Z,2.80
2022-08-21T12:30:44.273Z,2.78
2022-08-21T12:33:22.809Z,2.22
2022-08-21T12:35:52.242Z,2.55
2022-08-21T12:38:22.911Z,2.30
2022-08-21T12:40:55.276Z,2.42
2022-08-21T12:43:27.108Z,2.70
2022-08-21T12:45:55.421Z,2.50
2022-08-21T12:48:26.477Z,2.40
2022-08-21T12:50:57.538Z,1.98
2022-08-21T12:53:29.343Z,2.25
2022-08-21T12:56:02.830Z,2.30
2022-08-21T12:58:31.556Z,2.30
2022-08-21T13:01:02.671Z,2.15
2022-08-21T13:03:31.936Z,2.15
2022-08-21T13:06:00.768Z,2.58
2022-08-21T13:08:29.746Z,2.40
2022-08-21T13:11:13.564Z,2.42
2022-08-21T13:13:44.593Z,2.70
2022-08-21T13:16:15.527Z,2.50
2022-08-21T13:18:54.682Z,2.15
2022-08-21T13:21:24.356Z,2.28
2022-08-21T13:23:52.721Z,2.38
2022-08-21T13:26:24.302Z,2.28
2022-08-21T13:28:52.742Z,2.30
2022-08-21T13:31:23.042Z,2.50
2022-08-21T13:33:52.518Z,2.30
2022-08-21T13:36:23.193Z,2.25
2022-08-21T13:38:51.575Z,2.58
2022-08-21T13:41:25.080Z,2.30
2022-08-21T13:43:59.304Z,2.50
2022-08-21T13:46:29.477Z,2.20
2022-08-21T13:48:58.206Z,2.35
2022-08-21T13:51:27.719Z,2.40
2022-08-21T13:53:56.812Z,2.20
2022-08-21T13:56:27.535Z,2.67
2022-08-21T13:58:56.594Z,2.70
2022-08-21T14:01:26.011Z,2.63
2022-08-21T14:03:58.544Z,2.50
2022-08-21T14:06:28.085Z,2.40
2022-08-21T14:08:58.264Z,2.50
2022-08-21T14:11:30.105Z,2.38
2022-08-21T14:14:00.402Z,2.28
2022-08-21T14:16:30.321Z,2.22
2022-08-21T14:19:10.491Z,2.08
2022-08-21T14:21:41.235Z,2.45
2022-08-21T14:24:11.556Z,2.45
2022-08-21T14:26:46.656Z,2.30
2022-08-21T14:29:16.562Z,2.28
2022-08-21T14:31:44.962Z,2.15
2022-08-21T14:34:19.301Z,2.45
2022-08-21T14:36:48.354Z,2.33
2022-08-21T14:39:16.740Z,2.03
2022-08-21T14:41:49.580Z,2.60
2022-08-21T14:44:19.455Z,2.47
2022-08-21T14:46:55.898Z,2.50
2022-08-21T14:49:27.271Z,2.08
2022-08-21T14:51:58.349Z,2.05
2022-08-21T14:54:29.578Z,2.10
2022-08-21T14:57:01.568Z,2.30
2022-08-21T14:59:30.070Z,2.22
2022-08-21T15:01:59.435Z,2.38
2022-08-21T15:04:27.799Z,1.90
2022-08-21T15:06:56.102Z,2.20
2022-08-21T15:09:24.838Z,2.20
2022-08-21T15:11:53.981Z,1.92
2022-08-21T15:14:24.507Z,1.85
2022-08-21T15:16:53.127Z,2.25
2022-08-21T15:19:21.511Z,2.08
2022-08-21T15:21:49.937Z,2.00
2022-08-21T15:24:18.275Z,2.25
2022-08-21T15:26:47.315Z,2.10
2022-08-21T15:29:15.626Z,1.90
2022-08-21T15:31:57.604Z,2.00
2022-08-21T15:34:27.375Z,2.10
2022-08-21T15:36:57.365Z,2.00
2022-08-21T15:39:31.167Z,2.00
2022-08-21T15:42:01.061Z,2.05
2022-08-21T15:44:38.807Z,2.25
2022-08-21T15:47:10.123Z,2.45
2022-08-21T15:49:38.536Z,2.53
2022-08-21T15:52:06.988Z,2.38
2022-08-21T15:54:35.308Z,2.60
2022-08-21T15:57:03.696Z,2.35
2022-08-21T15:59:35.155Z,1.90
2022-08-21T16:02:03.533Z,2.50
2022-08-21T16:04:33.315Z,2.40
2022-08-21T16:07:06.677Z,2.15
2022-08-21T16:09:37.813Z,2.40
2022-08-21T16:12:07.036Z,2.50
2022-08-21T16:14:37.170Z,2.33
2022-08-21T16:17:06.799Z,2.33
2022-08-21T16:19:36.817Z,2.13
2022-08-21T16:22:05.173Z,1.85
2022-08-21T16:24:33.494Z,2.20
2022-08-21T16:27:02.764Z,2.45
2022-08-21T16:29:35.053Z,1.90
2022-08-21T16:32:03.608Z,2.13
2022-08-21T16:34:31.955Z,2.60
2022-08-21T16:37:01.664Z,2.35
2022-08-21T16:39:32.289Z,1.90
2022-08-21T16:42:00.630Z,2.33
2022-08-21T16:44:31.135Z,2.03
2022-08-21T16:46:59.915Z,2.05
2022-08-21T16:49:28.583Z,2.15
2022-08-21T16:51:56.911Z,2.50
2022-08-21T16:54:26.616Z,2.42
2022-08-21T16:56:55.379Z,2.33
2022-08-21T16:59:23.712Z,2.25
2022-08-21T17:01:54.308Z,2.35
2022-08-21T17:04:22.628Z,2.40
2022-08-21T17:06:52.215Z,2.15
2022-08-21T17:09:20.598Z,2.17
2022-08-21T17:11:50.742Z,2.42
2022-08-21T17:14:20.823Z,2.30
2022-08-21T17:16:50.235Z,2.35
2022-08-21T17:19:18.988Z,2.85
2022-08-21T17:21:47.553Z,2.85
2022-08-21T17:24:15.944Z,2.30
2022-08-21T17:26:44.381Z,2.20
2022-08-21T17:29:15.976Z,2.40
2022-08-21T17:31:45.556Z,2.40
2022-08-21T17:34:15.548Z,2.67
2022-08-21T17:36:43.970Z,2.90
2022-08-21T17:39:13.050Z,2.35
2022-08-21T17:41:50.227Z,2.80
2022-08-21T17:44:26.091Z,2.50
2022-08-21T17:46:54.734Z,2.60
2022-08-21T17:49:23.068Z,2.90
2022-08-21T17:51:51.451Z,2.33
2022-08-21T17:54:19.814Z,2.35
2022-08-21T17:56:48.510Z,2.65
2022-08-21T17:59:17.039Z,2.25
2022-08-21T18:01:48.187Z,2.65
2022-08-21T18:04:17.399Z,2.70
2022-08-21T18:06:46.186Z,2.42
2022-08-21T18:09:14.868Z,3.00
2022-08-21T18:11:43.847Z,2.78
2022-08-21T18:14:12.652Z,2.70
2022-08-21T18:16:40.968Z,2.63
2022-08-21T18:19:15.392Z,2.95
2022-08-21T18:21:43.738Z,3.15
2022-08-21T18:24:12.079Z,2.70
2022-08-21T18:26:41.102Z,2.97
2022-08-21T18:29:10.919Z,3.10
2022-08-21T18:31:40.487Z,3.60
2022-08-21T18:34:15.063Z,3.58
2022-08-21T18:36:45.580Z,3.25
2022-08-21T18:39:35.518Z,3.25
2022-08-21T18:42:02.513Z,3.15
2022-08-21T18:44:32.331Z,3.15
2022-08-21T18:47:02.474Z,2.90
2022-08-21T18:49:32.279Z,2.67
2022-08-21T18:52:02.748Z,3.30
2022-08-21T18:54:31.844Z,2.95
2022-08-21T18:57:00.320Z,2.78
2022-08-21T18:59:34.313Z,2.55
2022-08-21T19:02:02.730Z,2.80
2022-08-21T19:04:43.556Z,2.40
2022-08-21T19:07:21.748Z,2.85
2022-08-21T19:10:20.945Z,2.80
2022-08-21T19:12:39.403Z,2.83
2022-08-21T19:15:09.409Z,2.90
2022-08-21T19:17:38.396Z,2.97
2022-08-21T19:20:19.470Z,3.03
2022-08-21T19:22:56.276Z,3.10
2022-08-21T19:25:33.430Z,2.90
2022-08-21T19:28:15.140Z,5.18
2022-08-21T19:30:46.002Z,3.05
2022-08-21T19:33:23.221Z,2.95
2022-08-21T19:35:53.292Z,3.38
2022-08-21T19:38:21.905Z,2.90
2022-08-21T19:40:50.344Z,3.05
2022-08-21T19:43:22.442Z,3.10
2022-08-21T19:45:51.982Z,3.42
2022-08-21T19:48:20.407Z,3.58
2022-08-21T19:50:48.705Z,2.90
2022-08-21T19:53:18.511Z,3.45
2022-08-21T19:55:48.306Z,3.35
2022-08-21T19:58:23.752Z,3.58
2022-08-21T20:00:52.081Z,3.67
2022-08-21T20:03:21.276Z,3.58
2022-08-21T20:05:49.883Z,4.13
2022-08-21T20:08:20.153Z,3.60
2022-08-21T20:11:08.739Z,3.75
2022-08-21T20:13:37.415Z,3.95
2022-08-21T20:16:07.868Z,4.28
2022-08-21T20:18:38.289Z,4.82
2022-08-21T20:21:10.931Z,4.75
2022-08-21T20:23:48.884Z,4.07
2022-08-21T20:26:18.497Z,4.75
2022-08-21T20:28:50.530Z,4.20
2022-08-21T20:31:21.517Z,4.00
2022-08-21T20:33:50.453Z,3.60
2022-08-21T20:36:18.809Z,4.20
2022-08-21T20:38:51.777Z,3.78
2022-08-21T20:41:21.367Z,3.90
2022-08-21T20:43:59.751Z,3.90
2022-08-21T20:46:29.588Z,4.40
2022-08-21T20:48:57.995Z,4.38
2022-08-21T20:51:27.908Z,4.07
2022-08-21T20:54:03.072Z,7.38
2022-08-21T20:56:38.709Z,9.10
2022-08-21T20:59:12.157Z,5.22
2022-08-21T21:01:41.081Z,4.57
2022-08-21T21:04:19.491Z,4.32
2022-08-21T21:07:08.982Z,3.67
2022-08-21T21:09:42.300Z,4.30
2022-08-21T21:12:14.341Z,4.40
2022-08-21T21:14:45.237Z,4.35
2022-08-21T21:17:17.957Z,4.45
2022-08-21T21:19:57.818Z,4.53
2022-08-21T21:22:29.765Z,4.45
2022-08-21T21:25:00.979Z,4.80
2022-08-21T21:30:23.108Z,4.57
2022-08-21T21:32:51.809Z,5.00
2022-08-21T21:35:32.473Z,4.10
2022-08-21T21:38:12.090Z,4.57
2022-08-21T21:40:46.863Z,4.70
2022-08-21T21:43:24.407Z,5.00
2022-08-21T21:46:03.536Z,4.80
2022-08-21T21:48:36.538Z,4.82
2022-08-21T21:51:12.085Z,4.50
2022-08-21T21:53:50.605Z,4.50
2022-08-21T21:56:29.069Z,4.45
2022-08-21T21:59:18.410Z,4.30
2022-08-21T22:01:50.990Z,4.53
2022-08-21T22:04:28.411Z,4.53
2022-08-21T22:07:03.787Z,4.60
2022-08-21T22:09:40.168Z,4.78
2022-08-21T22:12:17.457Z,4.35
2022-08-21T22:14:48.154Z,4.75
2022-08-21T22:17:22.538Z,5.03
2022-08-21T22:19:53.231Z,4.85
2022-08-21T22:22:22.987Z,4.70
2022-08-21T22:24:54.919Z,4.57
2022-08-21T22:27:29.056Z,4.90
2022-08-21T22:30:00.249Z,4.35
2022-08-21T22:32:30.812Z,4.38
2022-08-21T22:35:03.042Z,4.65
2022-08-21T22:37:35.836Z,4.45
2022-08-21T22:40:05.237Z,4.73
2022-08-21T22:42:34.926Z,4.57
2022-08-21T22:45:04.783Z,4.68
2022-08-21T22:47:39.714Z,4.45
2022-08-21T22:50:17.802Z,4.68
2022-08-21T22:52:48.123Z,3.92
2022-08-21T22:55:24.602Z,3.97
2022-08-21T22:58:06.080Z,4.43
2022-08-21T23:00:40.800Z,4.38
2022-08-21T23:03:16.494Z,4.22
2022-08-21T23:05:46.318Z,3.92
2022-08-21T23:08:21.727Z,4.55
2022-08-21T23:10:58.081Z,4.10
2022-08-21T23:16:02.535Z,4.32
2022-08-21T23:18:34.910Z,4.10
2022-08-21T23:21:06.516Z,4.90
2022-08-21T23:23:38.255Z,4.78
2022-08-21T23:26:25.256Z,5.03
2022-08-21T23:29:04.880Z,4.88
2022-08-21T23:31:41.345Z,4.53
2022-08-21T23:34:19.605Z,4.57
2022-08-21T23:37:15.096Z,4.43
2022-08-21T23:39:51.680Z,5.22
2022-08-21T23:42:27.083Z,4.35
2022-08-21T23:44:59.964Z,5.22
2022-08-21T23:47:51.042Z,4.30
2022-08-21T23:50:25.042Z,4.50
2022-08-21T23:55:36.598Z,4.85
2022-08-21T23:58:12.136Z,5.15
